This is the latest recevied weather packets stored in our database for station/object DL1EEM-L4. If no packets are shown the sender has not sent any weather packets the latest 10 day(s).
| Time | Temp. | Humidity | Pressure | Rain* | Wind** | Luminosity | Snow |
|---|---|---|---|---|---|---|---|
| 1777838454 | 16.11° C | 73% | 1008.2 hPa | - | - | - | - |
| 1777837554 | 16.11° C | 73% | 1008.2 hPa | - | - | - | - |
| 1777836654 | 16.67° C | 71% | 1008.1 hPa | - | - | - | - |
| 1777835754 | 16.67° C | 72% | 1007.9 hPa | - | - | - | - |
| 1777834853 | 17.22° C | 71% | 1007.9 hPa | - | - | - | - |
| 1777833953 | 17.22° C | 71% | 1007.8 hPa | - | - | - | - |
| 1777833053 | 17.78° C | 71% | 1007.6 hPa | - | - | - | - |
| 1777832153 | 17.78° C | 71% | 1007.5 hPa | - | - | - | - |
| 1777831253 | 17.78° C | 70% | 1007.5 hPa | - | - | - | - |
| 1777830353 | 18.33° C | 70% | 1007.3 hPa | - | - | - | - |
| 1777829453 | 18.89° C | 69% | 1007.3 hPa | - | - | - | - |
| 1777828553 | 19.44° C | 67% | 1007 hPa | - | - | - | - |
| 1777827652 | 19.44° C | 67% | 1007.1 hPa | - | - | - | - |
| 1777826748 | 20° C | 66% | 1006.9 hPa | - | - | - | - |
| 1777825848 | 20° C | 66% | 1007.2 hPa | - | - | - | - |
| 1777824948 | 20.56° C | 59% | 1006.8 hPa | - | - | - | - |
| 1777824048 | 21.67° C | 54% | 1006.6 hPa | - | - | - | - |
| 1777823148 | 21.67° C | 54% | 1006.6 hPa | - | - | - | - |
| 1777822248 | 22.22° C | 52% | 1006.3 hPa | - | - | - | - |
| 1777821347 | 23.33° C | 48% | 1006.1 hPa | - | - | - | - |
| 1777820447 | 25° C | 38% | 1005.3 hPa | - | - | - | - |
| 1777819547 | 26.11° C | 35% | 1005 hPa | - | - | - | - |
| 1777818647 | 27.22° C | 32% | 1005.2 hPa | - | - | - | - |
| 1777817747 | 28.33° C | 30% | 1005.3 hPa | - | - | - | - |
| 1777816847 | 28.33° C | 30% | 1005.4 hPa | - | - | - | - |
* Rain since midnight (hover to see other rain measurements)
** Current wind speed in m/s (hover to see current wind gust speed)